Vb Saint Marc — FV6094 — position and weather

sailwx.info

Track history (hours):
 
Tides and Currents Weather Stations Pressure Air Temp Water Temp Dewpoint Dewpoint Depression Visibility Wind Speed Wind Dir Waves Ship Positions

Vb Saint Marc

Last reported at 2017-Nov-19 18:42 UTC. Time now 2017-Nov-19 20:11 UTC.
Position N 47°16' W 002°12'.

Length 30 m; draft 5 m.

Type: Tug. MMSI: 227005270.

Date/timePositionNaut miles runAvg speedWind from/ knotsBaromVisibWave heightAir tempDewpointWater temp
2017-Nov-19 18:42N 47°16' W 002°12'0 0.0
2017-Nov-19 06:25N 47°16' W 002°12'0 0.0
2017-Nov-19 05:52N 47°16' W 002°12'0 0.0
2017-Nov-19 05:22N 47°16' W 002°12'0 0.0
2017-Nov-19 04:54N 47°16' W 002°12'0 0.0
2017-Nov-19 04:28N 47°16' W 002°12'0 0.0
2017-Nov-19 03:55N 47°16' W 002°12'0 0.0
2017-Nov-19 03:30N 47°16' W 002°12'0 0.0
2017-Nov-19 02:59N 47°16' W 002°12'0 0.0
2017-Nov-19 02:30N 47°16' W 002°12'2 3.4
2017-Nov-19 02:00N 47°17' W 002°10'4 7.1
2017-Nov-19 01:30N 47°18' W 002°05'0 0.2
2017-Nov-19 01:00N 47°18' W 002°05'2 3.0
2017-Nov-19 00:30N 47°18' W 002°07'2 3.6
2017-Nov-19 00:00N 47°17' W 002°10'0 0.0
2017-Nov-18 23:30N 47°17' W 002°10'0 0.0
2017-Nov-18 23:00N 47°17' W 002°10'0 0.0
2017-Nov-18 22:31N 47°17' W 002°10'0 0.0
2017-Nov-18 22:00N 47°17' W 002°10'0 0.0
2017-Nov-18 21:30N 47°17' W 002°10'1 1.2
2017-Nov-18 21:00N 47°18' W 002°09'0 0.0
2017-Nov-18 20:30N 47°18' W 002°09'1 2.0
2017-Nov-18 20:00N 47°17' W 002°10'2 2.8
2017-Nov-18 19:25N 47°16' W 002°12'0 0.0
2017-Nov-18 18:57N 47°16' W 002°12'0 0.0
2017-Nov-18 18:30N 47°16' W 002°12'0 0.0
2017-Nov-18 18:00N 47°16' W 002°12'0 0.0
2017-Nov-18 17:27N 47°16' W 002°12'0 0.8
2017-Nov-18 17:00N 47°16' W 002°12'510.7
2017-Nov-18 16:30N 47°18' W 002°04'0 0.4
2017-Nov-18 16:00N 47°18' W 002°04'1 2.6
2017-Nov-18 15:30N 47°18' W 002°06'2 3.8
2017-Nov-18 15:00N 47°18' W 002°09'3 5.8
2017-Nov-18 14:30N 47°16' W 002°12'0 0.0
2017-Nov-18 14:00N 47°16' W 002°12'0 0.0
2017-Nov-18 13:30N 47°16' W 002°12'0 0.0
2017-Nov-18 13:00N 47°16' W 002°12'0 0.0
2017-Nov-18 12:30N 47°16' W 002°12'0 0.0
2017-Nov-18 12:00N 47°16' W 002°12'3 6.0
2017-Nov-18 11:30N 47°18' W 002°09'2 4.4
2017-Nov-18 11:00N 47°18' W 002°05'0 0.1
2017-Nov-18 10:30N 47°18' W 002°05'0 0.5
2017-Nov-18 10:00N 47°18' W 002°05'0 0.0
2017-Nov-18 09:30N 47°18' W 002°05'0 0.0
2017-Nov-18 09:00N 47°18' W 002°05'0 0.0
2017-Nov-18 08:30N 47°18' W 002°05'0 0.0
2017-Nov-18 08:00N 47°18' W 002°05'0 0.0
2017-Nov-18 07:30N 47°18' W 002°05'0 0.0
2017-Nov-18 07:00N 47°18' W 002°05'0 0.0
2017-Nov-18 06:30N 47°18' W 002°05'0 0.0
2017-Nov-18 06:00N 47°18' W 002°05'1 1.7
2017-Nov-18 05:30N 47°18' W 002°06'0 0.1
2017-Nov-18 05:00N 47°18' W 002°06'0 0.1
2017-Nov-18 04:30N 47°18' W 002°06'0 0.3
2017-Nov-18 04:00N 47°18' W 002°06'1 2.9
2017-Nov-18 03:30N 47°18' W 002°08'3 6.4
2017-Nov-18 03:00N 47°16' W 002°12'0 0.1
2017-Nov-18 01:43N 47°16' W 002°12'0 0.0
2017-Nov-18 01:30N 47°16' W 002°12'0 0.0
2017-Nov-18 00:56N 47°16' W 002°12'0 0.0
2017-Nov-18 00:30N 47°16' W 002°12'0 0.0
2017-Nov-17 16:27N 47°16' W 002°12'4 9.6
2017-Nov-17 16:00N 47°18' W 002°07'2 3.2
2017-Nov-17 15:30N 47°18' W 002°04'0 0.6
2017-Nov-17 15:00N 47°18' W 002°05'611.1
2017-Nov-17 14:30N 47°16' W 002°12'0 0.0
2017-Nov-17 09:14N 47°16' W 002°12'0 0.0
2017-Nov-17 08:13N 47°16' W 002°12'1 5.0
2017-Nov-17 08:00N 47°17' W 002°11'4 8.5
2017-Nov-17 07:30N 47°18' W 002°05'0 0.0
2017-Nov-17 07:00N 47°18' W 002°05'0 0.0
2017-Nov-17 06:31N 47°18' W 002°05'0 0.0
2017-Nov-17 06:00N 47°18' W 002°05'0 0.0
2017-Nov-17 05:30N 47°18' W 002°05'0 0.0
2017-Nov-17 05:00N 47°18' W 002°05'0 0.0
2017-Nov-17 04:30N 47°18' W 002°05'0 0.0
2017-Nov-17 04:00N 47°18' W 002°05'0 0.0
2017-Nov-17 03:30N 47°18' W 002°05'0 0.0
2017-Nov-17 03:00N 47°18' W 002°05'0 0.0
2017-Nov-17 02:30N 47°18' W 002°05'0 0.0
2017-Nov-17 02:00N 47°18' W 002°05'0 0.0
2017-Nov-17 01:30N 47°18' W 002°05'0 0.0
2017-Nov-17 01:00N 47°18' W 002°05'0 0.0
2017-Nov-17 00:30N 47°18' W 002°05'0 0.0
2017-Nov-17 00:00N 47°18' W 002°05'0 0.0
2017-Nov-16 23:30N 47°18' W 002°05'0 0.0
2017-Nov-16 23:00N 47°18' W 002°05'0 0.0
2017-Nov-16 22:30N 47°18' W 002°05'0 0.0
2017-Nov-16 22:00N 47°18' W 002°05'0 0.0
2017-Nov-16 21:30N 47°18' W 002°05'0 0.0
2017-Nov-16 21:00N 47°18' W 002°05'0 0.0
2017-Nov-16 20:30N 47°18' W 002°05'0 0.0
2017-Nov-16 20:00N 47°18' W 002°05'0 0.0
2017-Nov-16 19:30N 47°18' W 002°05'0 0.0
2017-Nov-16 19:00N 47°18' W 002°05'0 0.0
2017-Nov-16 18:30N 47°18' W 002°05'0 0.0
2017-Nov-16 18:00N 47°18' W 002°05'0 0.0
2017-Nov-16 17:30N 47°18' W 002°05'0 0.0
2017-Nov-16 17:00N 47°18' W 002°05'0 0.0
2017-Nov-16 16:30N 47°18' W 002°05'0 0.0
2017-Nov-16 16:00N 47°18' W 002°05'0 0.0
2017-Nov-16 15:30N 47°18' W 002°05'0 0.0
2017-Nov-16 15:00N 47°18' W 002°05'0 0.0
2017-Nov-16 14:30N 47°18' W 002°05'0 0.0
2017-Nov-16 14:00N 47°18' W 002°05'0 0.0
2017-Nov-16 13:30N 47°18' W 002°05'0 0.0
2017-Nov-16 13:00N 47°18' W 002°05'0 0.0
2017-Nov-16 12:30N 47°18' W 002°05'0 0.0
2017-Nov-16 12:00N 47°18' W 002°05'0 0.0
2017-Nov-16 11:30N 47°18' W 002°05'0 0.0
2017-Nov-16 11:00N 47°18' W 002°05'0 0.0
2017-Nov-16 10:30N 47°18' W 002°05'0 0.0
2017-Nov-16 10:00N 47°18' W 002°05'0 0.0
2017-Nov-16 09:26N 47°18' W 002°05'0 0.0
2017-Nov-16 09:00N 47°18' W 002°05'0 0.0
2017-Nov-16 08:30N 47°18' W 002°05'0 0.0
2017-Nov-16 08:00N 47°18' W 002°05'0 0.0
2017-Nov-16 07:30N 47°18' W 002°05'0 0.0
2017-Nov-16 07:00N 47°18' W 002°05'0 0.0
2017-Nov-16 06:30N 47°18' W 002°05'0 0.0
2017-Nov-16 06:00N 47°18' W 002°05'0 0.0
2017-Nov-16 05:30N 47°18' W 002°05'0 0.0
2017-Nov-16 05:01N 47°18' W 002°05'0 0.0
2017-Nov-16 04:31N 47°18' W 002°05'0 0.0
2017-Nov-16 04:01N 47°18' W 002°05'3 5.8
2017-Nov-16 03:30N 47°18' W 002°09'2 4.1
2017-Nov-16 03:00N 47°18' W 002°06'0 0.2
2017-Nov-16 02:30N 47°18' W 002°06'1 2.7
2017-Nov-16 02:00N 47°18' W 002°08'1 2.8
2017-Nov-16 01:30N 47°17' W 002°10'0 0.0
2017-Nov-16 01:00N 47°17' W 002°10'0 0.0
2017-Nov-16 00:30N 47°17' W 002°10'0 0.0
2017-Nov-16 00:00N 47°17' W 002°10'0 0.0
2017-Nov-15 23:30N 47°17' W 002°10'2 4.7
2017-Nov-15 23:00N 47°18' W 002°07'1 1.8
2017-Nov-15 22:30N 47°18' W 002°05'0 0.1
2017-Nov-15 22:00N 47°18' W 002°05'0 1.0
2017-Nov-15 21:30N 47°18' W 002°06'4 7.7
2017-Nov-15 21:00N 47°16' W 002°11'1 1.4
2017-Nov-15 20:29N 47°16' W 002°12'0 0.0
2017-Nov-15 19:49N 47°16' W 002°12'0 0.0
2017-Nov-15 19:29N 47°16' W 002°12'0 0.0
2017-Nov-15 19:00N 47°16' W 002°12'0 0.0
2017-Nov-15 18:25N 47°16' W 002°12'0 0.0
2017-Nov-15 17:52N 47°16' W 002°12'0 0.0
2017-Nov-15 17:27N 47°16' W 002°12'0 0.0
2017-Nov-15 15:39N 47°16' W 002°12'0 0.0
2017-Nov-15 15:09N 47°16' W 002°12'0 0.0
2017-Nov-15 14:57N 47°16' W 002°12'2 4.4
2017-Nov-15 14:30N 47°17' W 002°10'2 3.5
2017-Nov-15 14:00N 47°18' W 002°08'0 0.0
2017-Nov-15 13:30N 47°18' W 002°08'1 1.8
2017-Nov-15 13:00N 47°18' W 002°09'0 0.0
2017-Nov-15 12:30N 47°18' W 002°09'0 0.7
2017-Nov-15 12:00N 47°18' W 002°09'0 0.2
2017-Nov-15 11:30N 47°18' W 002°09'1 1.2
2017-Nov-15 11:00N 47°17' W 002°10'2 3.6
2017-Nov-15 10:30N 47°16' W 002°12'0 0.0
2017-Nov-15 10:00N 47°16' W 002°12'0 0.0
2017-Nov-15 09:28N 47°16' W 002°12'0 1.0
2017-Nov-15 09:00N 47°16' W 002°11'4 9.1
2017-Nov-15 08:30N 47°18' W 002°06'0 0.3
2017-Nov-15 08:00N 47°18' W 002°05'3 5.9
2017-Nov-15 07:30N 47°17' W 002°10'2 3.8
2017-Nov-15 06:56N 47°16' W 002°12'0 0.0
2017-Nov-15 06:30N 47°16' W 002°12'0 0.0
2017-Nov-15 06:00N 47°16' W 002°12'0 0.0
2017-Nov-15 05:27N 47°16' W 002°12'0 0.0
2017-Nov-15 05:00N 47°16' W 002°12'0 0.0
2017-Nov-15 04:30N 47°16' W 002°12'0 0.0
2017-Nov-15 04:00N 47°16' W 002°12'0 0.0
2017-Nov-15 03:30N 47°16' W 002°12'0 0.0
2017-Nov-15 03:00N 47°16' W 002°12'0 0.0
2017-Nov-15 02:30N 47°16' W 002°12'0 0.0
2017-Nov-15 02:00N 47°16' W 002°12'0 0.0
2017-Nov-15 01:30N 47°16' W 002°12'0 0.0
2017-Nov-15 01:00N 47°16' W 002°12'0 0.0
2017-Nov-15 00:30N 47°16' W 002°12'0 0.0
2017-Nov-15 00:00N 47°16' W 002°12'0 0.0
2017-Nov-14 23:30N 47°16' W 002°12'0 0.0
2017-Nov-14 23:00N 47°16' W 002°12'0 0.0
2017-Nov-14 22:30N 47°16' W 002°12'0 0.0
2017-Nov-14 22:00N 47°16' W 002°12'0 0.0
2017-Nov-14 21:30N 47°16' W 002°12'0 0.0
2017-Nov-14 20:58N 47°16' W 002°12'0 0.0
2017-Nov-14 20:29N 47°16' W 002°12'0 0.0
2017-Nov-14 20:00N 47°16' W 002°12'0 0.0
2017-Nov-14 19:30N 47°16' W 002°12'0 0.0
2017-Nov-14 17:52N 47°16' W 002°12'0 0.0
2017-Nov-14 17:22N 47°16' W 002°12'0 0.0
2017-Nov-14 16:50N 47°16' W 002°12'0 0.0
2017-Nov-14 16:29N 47°16' W 002°12'0 0.0
2017-Nov-14 16:00N 47°16' W 002°12'0 0.0
2017-Nov-14 15:23N 47°16' W 002°12'0 0.0
2017-Nov-14 14:56N 47°16' W 002°12'0 0.0
2017-Nov-14 14:27N 47°16' W 002°12'0 0.0
2017-Nov-14 13:54N 47°16' W 002°12'0 0.0
2017-Nov-14 13:30N 47°16' W 002°12'0 0.0
2017-Nov-14 12:57N 47°16' W 002°12'0 0.0
2017-Nov-14 10:54N 47°16' W 002°12'0 0.0
2017-Nov-14 10:30N 47°16' W 002°12'0 0.0
2017-Nov-14 10:00N 47°16' W 002°12'0 0.0
2017-Nov-14 09:30N 47°16' W 002°12'0 0.0
2017-Nov-14 08:59N 47°16' W 002°12'0 0.0
2017-Nov-14 08:28N 47°16' W 002°12'0 0.0
2017-Nov-14 07:43N 47°16' W 002°12'0 0.0
2017-Nov-14 07:31N 47°16' W 002°12'0 0.0
2017-Nov-14 06:46N 47°16' W 002°12'0 0.0
2017-Nov-14 06:29N 47°16' W 002°12'0 0.0
2017-Nov-14 05:59N 47°16' W 002°12'0 0.0
2017-Nov-14 05:30N 47°16' W 002°12'0 0.0
2017-Nov-14 04:53N 47°16' W 002°12'0 0.0
2017-Nov-14 04:28N 47°16' W 002°12'0 0.0
2017-Nov-14 03:42N 47°16' W 002°12'0 0.0
2017-Nov-14 03:30N 47°16' W 002°12'1 2.8
2017-Nov-14 03:00N 47°17' W 002°10'3 6.0
2017-Nov-14 02:30N 47°18' W 002°07'0 0.4
2017-Nov-14 02:00N 47°18' W 002°07'2 4.1
2017-Nov-14 01:30N 47°17' W 002°10'2 4.3
2017-Nov-14 01:00N 47°16' W 002°12'0 0.0
2017-Nov-14 00:29N 47°16' W 002°12'0 0.0
2017-Nov-13 23:59N 47°16' W 002°12'0 0.0
2017-Nov-13 23:30N 47°16' W 002°12'0 0.0
2017-Nov-13 23:00N 47°16' W 002°12'0 0.0
2017-Nov-13 22:30N 47°16' W 002°12'0 0.0
2017-Nov-13 22:00N 47°16' W 002°12'3 0.1
2017-Nov-13 01:43N 47°18' W 002°09'0 0.0
2017-Nov-13 01:30N 47°18' W 002°09'0 0.0
2017-Nov-13 00:52N 47°18' W 002°09'0 0.0
2017-Nov-12 17:39N 47°18' W 002°09'0 0.0
2017-Nov-12 17:30N 47°18' W 002°09'0 0.0
2017-Nov-12 11:45N 47°18' W 002°09'0 0.0
2017-Nov-12 11:14N 47°18' W 002°09'0 0.0
2017-Nov-12 10:58N 47°18' W 002°09'0 0.0
2017-Nov-12 10:30N 47°18' W 002°09'0 0.0
2017-Nov-12 10:00N 47°18' W 002°09'0 0.0
2017-Nov-12 08:47N 47°18' W 002°09'0 0.0
2017-Nov-12 08:30N 47°18' W 002°09'3 0.1
2017-Nov-11 10:02N 47°16' W 002°12'0 0.0
2017-Nov-11 09:45N 47°16' W 002°12'0 0.0
2017-Nov-11 06:59N 47°16' W 002°12'0 0.0
2017-Nov-11 00:10N 47°16' W 002°12'0 0.0
2017-Nov-11 00:00N 47°16' W 002°12'0 0.0
2017-Nov-10 23:28N 47°16' W 002°12'0 0.0
2017-Nov-10 22:58N 47°16' W 002°12'0 0.0
2017-Nov-10 22:29N 47°16' W 002°12'0 0.0
2017-Nov-10 22:00N 47°16' W 002°12'0 0.0
2017-Nov-10 21:24N 47°16' W 002°12'0 0.0
2017-Nov-10 20:57N 47°16' W 002°12'0 0.0
2017-Nov-10 20:29N 47°16' W 002°12'0 0.0
2017-Nov-10 20:00N 47°16' W 002°12'0 0.0
2017-Nov-10 19:29N 47°16' W 002°12'0 0.0
2017-Nov-10 18:57N 47°16' W 002°12'0 0.0
2017-Nov-10 18:29N 47°16' W 002°12'0 0.0
2017-Nov-10 17:58N 47°16' W 002°12'0 0.0
2017-Nov-10 17:29N 47°16' W 002°12'0 0.0
2017-Nov-10 16:58N 47°16' W 002°12'0 0.2
2017-Nov-10 16:16N 47°16' W 002°12'2 9.3
2017-Nov-10 16:00N 47°18' W 002°09'2 4.7
2017-Nov-10 15:30N 47°18' W 002°06'0 0.1
2017-Nov-10 15:00N 47°18' W 002°06'3 5.0
2017-Nov-10 14:27N 47°17' W 002°10'2 0.4
2017-Nov-10 09:40N 47°16' W 002°12'0 0.0
2017-Nov-10 09:29N 47°16' W 002°12'0 0.0
2017-Nov-10 08:59N 47°16' W 002°12'  
Track history (hours):
 
Tides and Currents Weather Stations Pressure Air Temp Water Temp Dewpoint Dewpoint Depression Visibility Wind Speed Wind Dir Waves Ship Positions

Vb Saint Marc

Last reported at 2017-Nov-19 18:42 UTC. Time now 2017-Nov-19 20:11 UTC.
Position N 47°16' W 002°12'.

Length 30 m; draft 5 m.

Type: Tug. MMSI: 227005270.

Date/timePositionNaut miles runAvg speedWind from/ knotsBaromVisibWave heightAir tempDewpointWater temp
2017-Nov-19 18:42N 47°16' W 002°12'0 0.0
2017-Nov-19 06:25N 47°16' W 002°12'0 0.0
2017-Nov-19 05:52N 47°16' W 002°12'0 0.0
2017-Nov-19 05:22N 47°16' W 002°12'0 0.0
2017-Nov-19 04:54N 47°16' W 002°12'0 0.0
2017-Nov-19 04:28N 47°16' W 002°12'0 0.0
2017-Nov-19 03:55N 47°16' W 002°12'0 0.0
2017-Nov-19 03:30N 47°16' W 002°12'0 0.0
2017-Nov-19 02:59N 47°16' W 002°12'0 0.0
2017-Nov-19 02:30N 47°16' W 002°12'2 3.4
2017-Nov-19 02:00N 47°17' W 002°10'4 7.1
2017-Nov-19 01:30N 47°18' W 002°05'0 0.2
2017-Nov-19 01:00N 47°18' W 002°05'2 3.0
2017-Nov-19 00:30N 47°18' W 002°07'2 3.6
2017-Nov-19 00:00N 47°17' W 002°10'0 0.0
2017-Nov-18 23:30N 47°17' W 002°10'0 0.0
2017-Nov-18 23:00N 47°17' W 002°10'0 0.0
2017-Nov-18 22:31N 47°17' W 002°10'0 0.0
2017-Nov-18 22:00N 47°17' W 002°10'0 0.0
2017-Nov-18 21:30N 47°17' W 002°10'1 1.2
2017-Nov-18 21:00N 47°18' W 002°09'0 0.0
2017-Nov-18 20:30N 47°18' W 002°09'1 2.0
2017-Nov-18 20:00N 47°17' W 002°10'2 2.8
2017-Nov-18 19:25N 47°16' W 002°12'0 0.0
2017-Nov-18 18:57N 47°16' W 002°12'0 0.0
2017-Nov-18 18:30N 47°16' W 002°12'0 0.0
2017-Nov-18 18:00N 47°16' W 002°12'0 0.0
2017-Nov-18 17:27N 47°16' W 002°12'0 0.8
2017-Nov-18 17:00N 47°16' W 002°12'510.7
2017-Nov-18 16:30N 47°18' W 002°04'0 0.4
2017-Nov-18 16:00N 47°18' W 002°04'1 2.6
2017-Nov-18 15:30N 47°18' W 002°06'2 3.8
2017-Nov-18 15:00N 47°18' W 002°09'3 5.8
2017-Nov-18 14:30N 47°16' W 002°12'0 0.0
2017-Nov-18 14:00N 47°16' W 002°12'0 0.0
2017-Nov-18 13:30N 47°16' W 002°12'0 0.0
2017-Nov-18 13:00N 47°16' W 002°12'0 0.0
2017-Nov-18 12:30N 47°16' W 002°12'0 0.0
2017-Nov-18 12:00N 47°16' W 002°12'3 6.0
2017-Nov-18 11:30N 47°18' W 002°09'2 4.4
2017-Nov-18 11:00N 47°18' W 002°05'0 0.1
2017-Nov-18 10:30N 47°18' W 002°05'0 0.5
2017-Nov-18 10:00N 47°18' W 002°05'0 0.0
2017-Nov-18 09:30N 47°18' W 002°05'0 0.0
2017-Nov-18 09:00N 47°18' W 002°05'0 0.0
2017-Nov-18 08:30N 47°18' W 002°05'0 0.0
2017-Nov-18 08:00N 47°18' W 002°05'0 0.0
2017-Nov-18 07:30N 47°18' W 002°05'0 0.0
2017-Nov-18 07:00N 47°18' W 002°05'0 0.0
2017-Nov-18 06:30N 47°18' W 002°05'0 0.0
2017-Nov-18 06:00N 47°18' W 002°05'1 1.7
2017-Nov-18 05:30N 47°18' W 002°06'0 0.1
2017-Nov-18 05:00N 47°18' W 002°06'0 0.1
2017-Nov-18 04:30N 47°18' W 002°06'0 0.3
2017-Nov-18 04:00N 47°18' W 002°06'1 2.9
2017-Nov-18 03:30N 47°18' W 002°08'3 6.4
2017-Nov-18 03:00N 47°16' W 002°12'0 0.1
2017-Nov-18 01:43N 47°16' W 002°12'0 0.0
2017-Nov-18 01:30N 47°16' W 002°12'0 0.0
2017-Nov-18 00:56N 47°16' W 002°12'0 0.0
2017-Nov-18 00:30N 47°16' W 002°12'0 0.0
2017-Nov-17 16:27N 47°16' W 002°12'4 9.6
2017-Nov-17 16:00N 47°18' W 002°07'2 3.2
2017-Nov-17 15:30N 47°18' W 002°04'0 0.6
2017-Nov-17 15:00N 47°18' W 002°05'611.1
2017-Nov-17 14:30N 47°16' W 002°12'0 0.0
2017-Nov-17 09:14N 47°16' W 002°12'0 0.0
2017-Nov-17 08:13N 47°16' W 002°12'1 5.0
2017-Nov-17 08:00N 47°17' W 002°11'4 8.5
2017-Nov-17 07:30N 47°18' W 002°05'0 0.0
2017-Nov-17 07:00N 47°18' W 002°05'0 0.0
2017-Nov-17 06:31N 47°18' W 002°05'0 0.0
2017-Nov-17 06:00N 47°18' W 002°05'0 0.0
2017-Nov-17 05:30N 47°18' W 002°05'0 0.0
2017-Nov-17 05:00N 47°18' W 002°05'0 0.0
2017-Nov-17 04:30N 47°18' W 002°05'0 0.0
2017-Nov-17 04:00N 47°18' W 002°05'0 0.0
2017-Nov-17 03:30N 47°18' W 002°05'0 0.0
2017-Nov-17 03:00N 47°18' W 002°05'0 0.0
2017-Nov-17 02:30N 47°18' W 002°05'0 0.0
2017-Nov-17 02:00N 47°18' W 002°05'0 0.0
2017-Nov-17 01:30N 47°18' W 002°05'0 0.0
2017-Nov-17 01:00N 47°18' W 002°05'0 0.0
2017-Nov-17 00:30N 47°18' W 002°05'0 0.0
2017-Nov-17 00:00N 47°18' W 002°05'0 0.0
2017-Nov-16 23:30N 47°18' W 002°05'0 0.0
2017-Nov-16 23:00N 47°18' W 002°05'0 0.0
2017-Nov-16 22:30N 47°18' W 002°05'0 0.0
2017-Nov-16 22:00N 47°18' W 002°05'0 0.0
2017-Nov-16 21:30N 47°18' W 002°05'0 0.0
2017-Nov-16 21:00N 47°18' W 002°05'0 0.0
2017-Nov-16 20:30N 47°18' W 002°05'0 0.0
2017-Nov-16 20:00N 47°18' W 002°05'0 0.0
2017-Nov-16 19:30N 47°18' W 002°05'0 0.0
2017-Nov-16 19:00N 47°18' W 002°05'0 0.0
2017-Nov-16 18:30N 47°18' W 002°05'0 0.0
2017-Nov-16 18:00N 47°18' W 002°05'0 0.0
2017-Nov-16 17:30N 47°18' W 002°05'0 0.0
2017-Nov-16 17:00N 47°18' W 002°05'0 0.0
2017-Nov-16 16:30N 47°18' W 002°05'0 0.0
2017-Nov-16 16:00N 47°18' W 002°05'0 0.0
2017-Nov-16 15:30N 47°18' W 002°05'0 0.0
2017-Nov-16 15:00N 47°18' W 002°05'0 0.0
2017-Nov-16 14:30N 47°18' W 002°05'0 0.0
2017-Nov-16 14:00N 47°18' W 002°05'0 0.0
2017-Nov-16 13:30N 47°18' W 002°05'0 0.0
2017-Nov-16 13:00N 47°18' W 002°05'0 0.0
2017-Nov-16 12:30N 47°18' W 002°05'0 0.0
2017-Nov-16 12:00N 47°18' W 002°05'0 0.0
2017-Nov-16 11:30N 47°18' W 002°05'0 0.0
2017-Nov-16 11:00N 47°18' W 002°05'0 0.0
2017-Nov-16 10:30N 47°18' W 002°05'0 0.0
2017-Nov-16 10:00N 47°18' W 002°05'0 0.0
2017-Nov-16 09:26N 47°18' W 002°05'0 0.0
2017-Nov-16 09:00N 47°18' W 002°05'0 0.0
2017-Nov-16 08:30N 47°18' W 002°05'0 0.0
2017-Nov-16 08:00N 47°18' W 002°05'0 0.0
2017-Nov-16 07:30N 47°18' W 002°05'0 0.0
2017-Nov-16 07:00N 47°18' W 002°05'0 0.0
2017-Nov-16 06:30N 47°18' W 002°05'0 0.0
2017-Nov-16 06:00N 47°18' W 002°05'0 0.0
2017-Nov-16 05:30N 47°18' W 002°05'0 0.0
2017-Nov-16 05:01N 47°18' W 002°05'0 0.0
2017-Nov-16 04:31N 47°18' W 002°05'0 0.0
2017-Nov-16 04:01N 47°18' W 002°05'3 5.8
2017-Nov-16 03:30N 47°18' W 002°09'2 4.1
2017-Nov-16 03:00N 47°18' W 002°06'0 0.2
2017-Nov-16 02:30N 47°18' W 002°06'1 2.7
2017-Nov-16 02:00N 47°18' W 002°08'1 2.8
2017-Nov-16 01:30N 47°17' W 002°10'0 0.0
2017-Nov-16 01:00N 47°17' W 002°10'0 0.0
2017-Nov-16 00:30N 47°17' W 002°10'0 0.0
2017-Nov-16 00:00N 47°17' W 002°10'0 0.0
2017-Nov-15 23:30N 47°17' W 002°10'2 4.7
2017-Nov-15 23:00N 47°18' W 002°07'1 1.8
2017-Nov-15 22:30N 47°18' W 002°05'0 0.1
2017-Nov-15 22:00N 47°18' W 002°05'0 1.0
2017-Nov-15 21:30N 47°18' W 002°06'4 7.7
2017-Nov-15 21:00N 47°16' W 002°11'1 1.4
2017-Nov-15 20:29N 47°16' W 002°12'0 0.0
2017-Nov-15 19:49N 47°16' W 002°12'0 0.0
2017-Nov-15 19:29N 47°16' W 002°12'0 0.0
2017-Nov-15 19:00N 47°16' W 002°12'0 0.0
2017-Nov-15 18:25N 47°16' W 002°12'0 0.0
2017-Nov-15 17:52N 47°16' W 002°12'0 0.0
2017-Nov-15 17:27N 47°16' W 002°12'0 0.0
2017-Nov-15 15:39N 47°16' W 002°12'0 0.0
2017-Nov-15 15:09N 47°16' W 002°12'0 0.0
2017-Nov-15 14:57N 47°16' W 002°12'2 4.4
2017-Nov-15 14:30N 47°17' W 002°10'2 3.5
2017-Nov-15 14:00N 47°18' W 002°08'0 0.0
2017-Nov-15 13:30N 47°18' W 002°08'1 1.8
2017-Nov-15 13:00N 47°18' W 002°09'0 0.0
2017-Nov-15 12:30N 47°18' W 002°09'0 0.7
2017-Nov-15 12:00N 47°18' W 002°09'0 0.2
2017-Nov-15 11:30N 47°18' W 002°09'1 1.2
2017-Nov-15 11:00N 47°17' W 002°10'2 3.6
2017-Nov-15 10:30N 47°16' W 002°12'0 0.0
2017-Nov-15 10:00N 47°16' W 002°12'0 0.0
2017-Nov-15 09:28N 47°16' W 002°12'0 1.0
2017-Nov-15 09:00N 47°16' W 002°11'4 9.1
2017-Nov-15 08:30N 47°18' W 002°06'0 0.3
2017-Nov-15 08:00N 47°18' W 002°05'3 5.9
2017-Nov-15 07:30N 47°17' W 002°10'2 3.8
2017-Nov-15 06:56N 47°16' W 002°12'0 0.0
2017-Nov-15 06:30N 47°16' W 002°12'0 0.0
2017-Nov-15 06:00N 47°16' W 002°12'0 0.0
2017-Nov-15 05:27N 47°16' W 002°12'0 0.0
2017-Nov-15 05:00N 47°16' W 002°12'0 0.0
2017-Nov-15 04:30N 47°16' W 002°12'0 0.0
2017-Nov-15 04:00N 47°16' W 002°12'0 0.0
2017-Nov-15 03:30N 47°16' W 002°12'0 0.0
2017-Nov-15 03:00N 47°16' W 002°12'0 0.0
2017-Nov-15 02:30N 47°16' W 002°12'0 0.0
2017-Nov-15 02:00N 47°16' W 002°12'0 0.0
2017-Nov-15 01:30N 47°16' W 002°12'0 0.0
2017-Nov-15 01:00N 47°16' W 002°12'0 0.0
2017-Nov-15 00:30N 47°16' W 002°12'0 0.0
2017-Nov-15 00:00N 47°16' W 002°12'0 0.0
2017-Nov-14 23:30N 47°16' W 002°12'0 0.0
2017-Nov-14 23:00N 47°16' W 002°12'0 0.0
2017-Nov-14 22:30N 47°16' W 002°12'0 0.0
2017-Nov-14 22:00N 47°16' W 002°12'0 0.0
2017-Nov-14 21:30N 47°16' W 002°12'0 0.0
2017-Nov-14 20:58N 47°16' W 002°12'0 0.0
2017-Nov-14 20:29N 47°16' W 002°12'0 0.0
2017-Nov-14 20:00N 47°16' W 002°12'0 0.0
2017-Nov-14 19:30N 47°16' W 002°12'0 0.0
2017-Nov-14 17:52N 47°16' W 002°12'0 0.0
2017-Nov-14 17:22N 47°16' W 002°12'0 0.0
2017-Nov-14 16:50N 47°16' W 002°12'0 0.0
2017-Nov-14 16:29N 47°16' W 002°12'0 0.0
2017-Nov-14 16:00N 47°16' W 002°12'0 0.0
2017-Nov-14 15:23N 47°16' W 002°12'0 0.0
2017-Nov-14 14:56N 47°16' W 002°12'0 0.0
2017-Nov-14 14:27N 47°16' W 002°12'0 0.0
2017-Nov-14 13:54N 47°16' W 002°12'0 0.0
2017-Nov-14 13:30N 47°16' W 002°12'0 0.0
2017-Nov-14 12:57N 47°16' W 002°12'0 0.0
2017-Nov-14 10:54N 47°16' W 002°12'0 0.0
2017-Nov-14 10:30N 47°16' W 002°12'0 0.0
2017-Nov-14 10:00N 47°16' W 002°12'0 0.0
2017-Nov-14 09:30N 47°16' W 002°12'0 0.0
2017-Nov-14 08:59N 47°16' W 002°12'0 0.0
2017-Nov-14 08:28N 47°16' W 002°12'0 0.0
2017-Nov-14 07:43N 47°16' W 002°12'0 0.0
2017-Nov-14 07:31N 47°16' W 002°12'0 0.0
2017-Nov-14 06:46N 47°16' W 002°12'0 0.0
2017-Nov-14 06:29N 47°16' W 002°12'0 0.0
2017-Nov-14 05:59N 47°16' W 002°12'0 0.0
2017-Nov-14 05:30N 47°16' W 002°12'0 0.0
2017-Nov-14 04:53N 47°16' W 002°12'0 0.0
2017-Nov-14 04:28N 47°16' W 002°12'0 0.0
2017-Nov-14 03:42N 47°16' W 002°12'0 0.0
2017-Nov-14 03:30N 47°16' W 002°12'1 2.8
2017-Nov-14 03:00N 47°17' W 002°10'3 6.0
2017-Nov-14 02:30N 47°18' W 002°07'0 0.4
2017-Nov-14 02:00N 47°18' W 002°07'2 4.1
2017-Nov-14 01:30N 47°17' W 002°10'2 4.3
2017-Nov-14 01:00N 47°16' W 002°12'0 0.0
2017-Nov-14 00:29N 47°16' W 002°12'0 0.0
2017-Nov-13 23:59N 47°16' W 002°12'0 0.0
2017-Nov-13 23:30N 47°16' W 002°12'0 0.0
2017-Nov-13 23:00N 47°16' W 002°12'0 0.0
2017-Nov-13 22:30N 47°16' W 002°12'0 0.0
2017-Nov-13 22:00N 47°16' W 002°12'3 0.1
2017-Nov-13 01:43N 47°18' W 002°09'0 0.0
2017-Nov-13 01:30N 47°18' W 002°09'0 0.0
2017-Nov-13 00:52N 47°18' W 002°09'0 0.0
2017-Nov-12 17:39N 47°18' W 002°09'0 0.0
2017-Nov-12 17:30N 47°18' W 002°09'0 0.0
2017-Nov-12 11:45N 47°18' W 002°09'0 0.0
2017-Nov-12 11:14N 47°18' W 002°09'0 0.0
2017-Nov-12 10:58N 47°18' W 002°09'0 0.0
2017-Nov-12 10:30N 47°18' W 002°09'0 0.0
2017-Nov-12 10:00N 47°18' W 002°09'0 0.0
2017-Nov-12 08:47N 47°18' W 002°09'0 0.0
2017-Nov-12 08:30N 47°18' W 002°09'3 0.1
2017-Nov-11 10:02N 47°16' W 002°12'0 0.0
2017-Nov-11 09:45N 47°16' W 002°12'0 0.0
2017-Nov-11 06:59N 47°16' W 002°12'0 0.0
2017-Nov-11 00:10N 47°16' W 002°12'0 0.0
2017-Nov-11 00:00N 47°16' W 002°12'0 0.0
2017-Nov-10 23:28N 47°16' W 002°12'0 0.0
2017-Nov-10 22:58N 47°16' W 002°12'0 0.0
2017-Nov-10 22:29N 47°16' W 002°12'0 0.0
2017-Nov-10 22:00N 47°16' W 002°12'0 0.0
2017-Nov-10 21:24N 47°16' W 002°12'0 0.0
2017-Nov-10 20:57N 47°16' W 002°12'0 0.0
2017-Nov-10 20:29N 47°16' W 002°12'0 0.0
2017-Nov-10 20:00N 47°16' W 002°12'0 0.0
2017-Nov-10 19:29N 47°16' W 002°12'0 0.0
2017-Nov-10 18:57N 47°16' W 002°12'0 0.0
2017-Nov-10 18:29N 47°16' W 002°12'0 0.0
2017-Nov-10 17:58N 47°16' W 002°12'0 0.0
2017-Nov-10 17:29N 47°16' W 002°12'0 0.0
2017-Nov-10 16:58N 47°16' W 002°12'0 0.2
2017-Nov-10 16:16N 47°16' W 002°12'2 9.3
2017-Nov-10 16:00N 47°18' W 002°09'2 4.7
2017-Nov-10 15:30N 47°18' W 002°06'0 0.1
2017-Nov-10 15:00N 47°18' W 002°06'3 5.0
2017-Nov-10 14:27N 47°17' W 002°10'2 0.4
2017-Nov-10 09:40N 47°16' W 002°12'0 0.0
2017-Nov-10 09:29N 47°16' W 002°12'0 0.0
2017-Nov-10 08:59N 47°16' W 002°12'  

Dump ship's entire track history